sensor_id;sensor_type;location;lat;lon;timestamp;temperature;humidity
23560;DHT22;11958;50.836;4.438;2023-04-24T00:01:55;9.60;88.60
23560;DHT22;11958;50.836;4.438;2023-04-24T00:04:21;9.50;88.40
23560;DHT22;11958;50.836;4.438;2023-04-24T00:06:47;9.50;89.00
23560;DHT22;11958;50.836;4.438;2023-04-24T00:09:19;9.60;88.70
23560;DHT22;11958;50.836;4.438;2023-04-24T00:11:45;9.40;87.90
23560;DHT22;11958;50.836;4.438;2023-04-24T00:14:10;9.40;88.60
23560;DHT22;11958;50.836;4.438;2023-04-24T00:16:36;9.50;88.80
23560;DHT22;11958;50.836;4.438;2023-04-24T00:19:02;9.40;88.70
23560;DHT22;11958;50.836;4.438;2023-04-24T00:21:27;9.60;89.20
23560;DHT22;11958;50.836;4.438;2023-04-24T00:23:53;9.50;89.80
23560;DHT22;11958;50.836;4.438;2023-04-24T00:26:19;9.10;90.60
23560;DHT22;11958;50.836;4.438;2023-04-24T00:28:44;9.20;91.30
23560;DHT22;11958;50.836;4.438;2023-04-24T00:31:10;9.40;91.20
23560;DHT22;11958;50.836;4.438;2023-04-24T00:33:36;9.50;91.10
23560;DHT22;11958;50.836;4.438;2023-04-24T00:36:01;9.20;91.10
23560;DHT22;11958;50.836;4.438;2023-04-24T00:38:27;9.20;90.80
23560;DHT22;11958;50.836;4.438;2023-04-24T00:40:53;9.00;91.70
23560;DHT22;11958;50.836;4.438;2023-04-24T00:43:19;9.30;92.10
23560;DHT22;11958;50.836;4.438;2023-04-24T00:45:45;9.20;91.70
23560;DHT22;11958;50.836;4.438;2023-04-24T00:48:11;9.30;91.80
23560;DHT22;11958;50.836;4.438;2023-04-24T00:50:38;9.30;91.20
23560;DHT22;11958;50.836;4.438;2023-04-24T00:53:04;9.30;91.50
23560;DHT22;11958;50.836;4.438;2023-04-24T00:55:30;9.20;91.50
23560;DHT22;11958;50.836;4.438;2023-04-24T00:57:57;9.10;91.30
23560;DHT22;11958;50.836;4.438;2023-04-24T01:00:22;9.10;90.40
23560;DHT22;11958;50.836;4.438;2023-04-24T01:02:48;9.00;91.60
23560;DHT22;11958;50.836;4.438;2023-04-24T01:05:15;9.00;91.40
23560;DHT22;11958;50.836;4.438;2023-04-24T01:07:44;9.40;91.70
23560;DHT22;11958;50.836;4.438;2023-04-24T01:10:11;9.20;91.00
23560;DHT22;11958;50.836;4.438;2023-04-24T01:12:38;9.20;91.20
23560;DHT22;11958;50.836;4.438;2023-04-24T01:15:04;9.30;91.80
23560;DHT22;11958;50.836;4.438;2023-04-24T01:17:32;9.20;91.20
23560;DHT22;11958;50.836;4.438;2023-04-24T01:19:58;9.20;91.40
23560;DHT22;11958;50.836;4.438;2023-04-24T01:22:25;9.20;91.80
23560;DHT22;11958;50.836;4.438;2023-04-24T01:24:51;9.20;91.90
23560;DHT22;11958;50.836;4.438;2023-04-24T01:27:17;9.20;92.00
23560;DHT22;11958;50.836;4.438;2023-04-24T01:29:43;9.10;92.70
23560;DHT22;11958;50.836;4.438;2023-04-24T01:32:09;9.00;93.50
23560;DHT22;11958;50.836;4.438;2023-04-24T01:34:35;9.20;93.50
23560;DHT22;11958;50.836;4.438;2023-04-24T01:37:01;9.10;93.70
23560;DHT22;11958;50.836;4.438;2023-04-24T01:39:26;9.00;93.10
23560;DHT22;11958;50.836;4.438;2023-04-24T01:41:54;8.90;93.20
23560;DHT22;11958;50.836;4.438;2023-04-24T01:44:20;8.80;94.00
23560;DHT22;11958;50.836;4.438;2023-04-24T01:46:46;8.90;93.60
23560;DHT22;11958;50.836;4.438;2023-04-24T01:49:12;8.80;93.60
23560;DHT22;11958;50.836;4.438;2023-04-24T01:51:38;8.70;93.60
23560;DHT22;11958;50.836;4.438;2023-04-24T01:54:05;8.70;94.10
23560;DHT22;11958;50.836;4.438;2023-04-24T01:56:33;8.70;93.90
23560;DHT22;11958;50.836;4.438;2023-04-24T01:59:00;8.70;94.60
23560;DHT22;11958;50.836;4.438;2023-04-24T02:01:26;8.70;94.50
23560;DHT22;11958;50.836;4.438;2023-04-24T02:03:51;8.80;94.80
23560;DHT22;11958;50.836;4.438;2023-04-24T02:06:17;8.90;94.70
23560;DHT22;11958;50.836;4.438;2023-04-24T02:08:43;9.00;94.20
23560;DHT22;11958;50.836;4.438;2023-04-24T02:11:09;8.90;94.10
23560;DHT22;11958;50.836;4.438;2023-04-24T02:13:35;8.90;94.50
23560;DHT22;11958;50.836;4.438;2023-04-24T02:16:01;8.90;94.20
23560;DHT22;11958;50.836;4.438;2023-04-24T02:18:26;8.90;94.50
23560;DHT22;11958;50.836;4.438;2023-04-24T02:20:52;8.90;94.60
23560;DHT22;11958;50.836;4.438;2023-04-24T02:23:18;8.80;94.60
23560;DHT22;11958;50.836;4.438;2023-04-24T02:25:43;9.00;94.40
23560;DHT22;11958;50.836;4.438;2023-04-24T02:28:09;8.80;94.60
23560;DHT22;11958;50.836;4.438;2023-04-24T02:30:35;8.80;95.00
23560;DHT22;11958;50.836;4.438;2023-04-24T02:33:00;8.60;95.00
23560;DHT22;11958;50.836;4.438;2023-04-24T02:35:26;8.80;95.00
23560;DHT22;11958;50.836;4.438;2023-04-24T02:37:52;8.60;95.20
23560;DHT22;11958;50.836;4.438;2023-04-24T02:40:17;8.60;95.40
23560;DHT22;11958;50.836;4.438;2023-04-24T02:42:44;8.60;95.90
23560;DHT22;11958;50.836;4.438;2023-04-24T02:45:10;8.90;95.70
23560;DHT22;11958;50.836;4.438;2023-04-24T02:47:36;8.70;95.70
23560;DHT22;11958;50.836;4.438;2023-04-24T02:50:02;8.50;96.50
23560;DHT22;11958;50.836;4.438;2023-04-24T02:52:28;8.60;96.80
23560;DHT22;11958;50.836;4.438;2023-04-24T02:54:54;8.80;96.60
23560;DHT22;11958;50.836;4.438;2023-04-24T02:57:19;8.70;96.30
23560;DHT22;11958;50.836;4.438;2023-04-24T02:59:45;8.80;96.30
23560;DHT22;11958;50.836;4.438;2023-04-24T03:02:11;8.80;96.10
23560;DHT22;11958;50.836;4.438;2023-04-24T03:04:36;8.80;96.10
23560;DHT22;11958;50.836;4.438;2023-04-24T03:07:02;8.50;96.10
23560;DHT22;11958;50.836;4.438;2023-04-24T03:09:27;8.60;96.40
23560;DHT22;11958;50.836;4.438;2023-04-24T03:11:53;8.50;96.90
23560;DHT22;11958;50.836;4.438;2023-04-24T03:14:19;8.70;96.50
23560;DHT22;11958;50.836;4.438;2023-04-24T03:16:45;8.70;95.60
23560;DHT22;11958;50.836;4.438;2023-04-24T03:19:11;8.60;96.00
23560;DHT22;11958;50.836;4.438;2023-04-24T03:21:36;8.50;96.90
23560;DHT22;11958;50.836;4.438;2023-04-24T03:24:09;8.50;96.80
23560;DHT22;11958;50.836;4.438;2023-04-24T03:26:35;8.60;97.50
23560;DHT22;11958;50.836;4.438;2023-04-24T03:29:01;8.70;97.60
23560;DHT22;11958;50.836;4.438;2023-04-24T03:31:26;8.60;97.70
23560;DHT22;11958;50.836;4.438;2023-04-24T03:33:52;8.70;97.80
23560;DHT22;11958;50.836;4.438;2023-04-24T03:36:18;8.50;97.50
23560;DHT22;11958;50.836;4.438;2023-04-24T03:38:44;8.60;98.20
23560;DHT22;11958;50.836;4.438;2023-04-24T03:41:10;8.50;98.30
23560;DHT22;11958;50.836;4.438;2023-04-24T03:43:37;8.40;98.80
23560;DHT22;11958;50.836;4.438;2023-04-24T03:46:02;8.40;98.70
23560;DHT22;11958;50.836;4.438;2023-04-24T03:48:28;8.40;99.20
23560;DHT22;11958;50.836;4.438;2023-04-24T03:50:54;8.40;99.50
23560;DHT22;11958;50.836;4.438;2023-04-24T03:53:19;8.70;99.40
23560;DHT22;11958;50.836;4.438;2023-04-24T03:55:46;8.70;99.40
23560;DHT22;11958;50.836;4.438;2023-04-24T03:58:11;8.70;99.60
23560;DHT22;11958;50.836;4.438;2023-04-24T04:00:39;8.60;99.40
23560;DHT22;11958;50.836;4.438;2023-04-24T04:03:05;8.50;99.60
23560;DHT22;11958;50.836;4.438;2023-04-24T04:05:31;8.40;99.40
23560;DHT22;11958;50.836;4.438;2023-04-24T04:07:57;8.60;99.70
23560;DHT22;11958;50.836;4.438;2023-04-24T04:10:23;8.60;99.90
23560;DHT22;11958;50.836;4.438;2023-04-24T04:12:48;8.70;99.90
23560;DHT22;11958;50.836;4.438;2023-04-24T04:15:14;8.70;99.70
23560;DHT22;11958;50.836;4.438;2023-04-24T04:17:40;8.80;99.70
23560;DHT22;11958;50.836;4.438;2023-04-24T04:20:06;8.80;99.60
23560;DHT22;11958;50.836;4.438;2023-04-24T04:22:35;8.80;99.50
23560;DHT22;11958;50.836;4.438;2023-04-24T04:25:01;9.00;99.10
23560;DHT22;11958;50.836;4.438;2023-04-24T04:27:27;8.80;99.40
23560;DHT22;11958;50.836;4.438;2023-04-24T04:29:54;9.00;99.60
23560;DHT22;11958;50.836;4.438;2023-04-24T04:32:21;9.00;99.10
23560;DHT22;11958;50.836;4.438;2023-04-24T04:34:47;8.90;99.20
23560;DHT22;11958;50.836;4.438;2023-04-24T04:37:14;8.80;99.40
23560;DHT22;11958;50.836;4.438;2023-04-24T04:39:40;8.80;99.30
23560;DHT22;11958;50.836;4.438;2023-04-24T04:42:06;8.80;99.50
23560;DHT22;11958;50.836;4.438;2023-04-24T04:44:32;8.70;98.80
23560;DHT22;11958;50.836;4.438;2023-04-24T04:46:58;8.70;98.70
23560;DHT22;11958;50.836;4.438;2023-04-24T04:49:25;8.70;98.90
23560;DHT22;11958;50.836;4.438;2023-04-24T04:51:53;8.70;99.50
23560;DHT22;11958;50.836;4.438;2023-04-24T04:54:19;8.80;99.20
23560;DHT22;11958;50.836;4.438;2023-04-24T04:56:45;8.80;99.20
23560;DHT22;11958;50.836;4.438;2023-04-24T04:59:11;8.80;99.10
23560;DHT22;11958;50.836;4.438;2023-04-24T05:01:37;8.80;98.80
23560;DHT22;11958;50.836;4.438;2023-04-24T05:04:03;8.70;98.80
23560;DHT22;11958;50.836;4.438;2023-04-24T05:06:29;8.70;98.50
23560;DHT22;11958;50.836;4.438;2023-04-24T05:08:56;8.70;98.60
23560;DHT22;11958;50.836;4.438;2023-04-24T05:11:22;8.70;98.80
23560;DHT22;11958;50.836;4.438;2023-04-24T05:13:48;8.70;98.60
23560;DHT22;11958;50.836;4.438;2023-04-24T05:16:14;8.60;98.10
23560;DHT22;11958;50.836;4.438;2023-04-24T05:18:40;8.50;97.90
23560;DHT22;11958;50.836;4.438;2023-04-24T05:21:06;8.40;97.90
23560;DHT22;11958;50.836;4.438;2023-04-24T05:23:31;8.50;98.50
23560;DHT22;11958;50.836;4.438;2023-04-24T05:25:57;8.50;98.60
23560;DHT22;11958;50.836;4.438;2023-04-24T05:28:23;8.70;98.00
23560;DHT22;11958;50.836;4.438;2023-04-24T05:30:48;8.50;97.50
23560;DHT22;11958;50.836;4.438;2023-04-24T05:33:14;8.50;96.60
23560;DHT22;11958;50.836;4.438;2023-04-24T05:35:41;8.60;97.70
23560;DHT22;11958;50.836;4.438;2023-04-24T05:38:12;8.60;97.40
23560;DHT22;11958;50.836;4.438;2023-04-24T05:40:38;8.60;97.70
23560;DHT22;11958;50.836;4.438;2023-04-24T05:43:04;8.60;97.50
23560;DHT22;11958;50.836;4.438;2023-04-24T05:45:32;8.60;97.70
23560;DHT22;11958;50.836;4.438;2023-04-24T05:48:06;8.50;97.40
23560;DHT22;11958;50.836;4.438;2023-04-24T05:50:32;8.40;97.20
23560;DHT22;11958;50.836;4.438;2023-04-24T05:52:58;8.60;97.10
23560;DHT22;11958;50.836;4.438;2023-04-24T05:55:24;8.70;96.90
23560;DHT22;11958;50.836;4.438;2023-04-24T05:57:51;8.50;96.60
23560;DHT22;11958;50.836;4.438;2023-04-24T06:00:17;8.60;96.80
23560;DHT22;11958;50.836;4.438;2023-04-24T06:05:35;8.50;97.00
23560;DHT22;11958;50.836;4.438;2023-04-24T06:08:00;8.50;97.40
23560;DHT22;11958;50.836;4.438;2023-04-24T06:10:29;8.60;97.30
23560;DHT22;11958;50.836;4.438;2023-04-24T06:12:54;8.50;97.40
23560;DHT22;11958;50.836;4.438;2023-04-24T06:15:26;8.50;97.90
23560;DHT22;11958;50.836;4.438;2023-04-24T06:17:52;8.40;97.70
23560;DHT22;11958;50.836;4.438;2023-04-24T06:20:18;8.60;97.90
23560;DHT22;11958;50.836;4.438;2023-04-24T06:22:44;8.50;97.10
23560;DHT22;11958;50.836;4.438;2023-04-24T06:25:09;8.50;97.60
23560;DHT22;11958;50.836;4.438;2023-04-24T06:27:35;8.70;97.80
23560;DHT22;11958;50.836;4.438;2023-04-24T06:30:02;8.80;97.20
23560;DHT22;11958;50.836;4.438;2023-04-24T06:32:27;8.60;97.50
23560;DHT22;11958;50.836;4.438;2023-04-24T06:34:53;8.60;97.30
23560;DHT22;11958;50.836;4.438;2023-04-24T06:37:20;8.50;97.60
23560;DHT22;11958;50.836;4.438;2023-04-24T06:39:46;8.60;97.70
23560;DHT22;11958;50.836;4.438;2023-04-24T06:42:12;8.50;98.10
23560;DHT22;11958;50.836;4.438;2023-04-24T06:44:37;8.60;98.10
23560;DHT22;11958;50.836;4.438;2023-04-24T06:47:15;8.70;97.50
23560;DHT22;11958;50.836;4.438;2023-04-24T06:49:44;8.70;97.20
23560;DHT22;11958;50.836;4.438;2023-04-24T06:52:19;8.70;97.40
23560;DHT22;11958;50.836;4.438;2023-04-24T06:54:45;8.80;97.80
23560;DHT22;11958;50.836;4.438;2023-04-24T06:57:10;8.70;97.80
23560;DHT22;11958;50.836;4.438;2023-04-24T06:59:37;8.80;97.20
23560;DHT22;11958;50.836;4.438;2023-04-24T07:02:03;8.70;96.40
23560;DHT22;11958;50.836;4.438;2023-04-24T07:04:29;8.80;97.00
23560;DHT22;11958;50.836;4.438;2023-04-24T07:06:55;8.90;96.30
23560;DHT22;11958;50.836;4.438;2023-04-24T07:09:23;8.80;96.40
23560;DHT22;11958;50.836;4.438;2023-04-24T07:11:54;8.90;95.80
23560;DHT22;11958;50.836;4.438;2023-04-24T07:14:20;8.90;96.60
23560;DHT22;11958;50.836;4.438;2023-04-24T07:16:46;9.10;95.60
23560;DHT22;11958;50.836;4.438;2023-04-24T07:19:19;8.80;95.20
23560;DHT22;11958;50.836;4.438;2023-04-24T07:21:45;8.80;96.30
23560;DHT22;11958;50.836;4.438;2023-04-24T07:24:11;9.00;96.30
23560;DHT22;11958;50.836;4.438;2023-04-24T07:26:38;9.00;95.60
23560;DHT22;11958;50.836;4.438;2023-04-24T07:29:07;9.20;95.90
23560;DHT22;11958;50.836;4.438;2023-04-24T07:31:33;9.50;96.40
23560;DHT22;11958;50.836;4.438;2023-04-24T07:33:59;9.70;95.60
23560;DHT22;11958;50.836;4.438;2023-04-24T07:36:24;9.70;94.50
23560;DHT22;11958;50.836;4.438;2023-04-24T07:38:51;9.50;92.30
23560;DHT22;11958;50.836;4.438;2023-04-24T07:41:17;9.60;93.50
23560;DHT22;11958;50.836;4.438;2023-04-24T07:43:44;9.70;93.60
23560;DHT22;11958;50.836;4.438;2023-04-24T07:46:11;9.80;94.40
23560;DHT22;11958;50.836;4.438;2023-04-24T07:48:37;10.00;92.20
23560;DHT22;11958;50.836;4.438;2023-04-24T07:51:02;9.90;91.90
23560;DHT22;11958;50.836;4.438;2023-04-24T07:53:28;9.80;92.00
23560;DHT22;11958;50.836;4.438;2023-04-24T07:55:55;9.60;92.50
23560;DHT22;11958;50.836;4.438;2023-04-24T07:58:21;9.30;92.80
23560;DHT22;11958;50.836;4.438;2023-04-24T08:00:46;9.50;93.20
23560;DHT22;11958;50.836;4.438;2023-04-24T08:03:12;9.40;92.90
23560;DHT22;11958;50.836;4.438;2023-04-24T08:05:38;9.50;93.00
23560;DHT22;11958;50.836;4.438;2023-04-24T08:08:04;9.70;93.70
23560;DHT22;11958;50.836;4.438;2023-04-24T08:10:30;9.70;92.40
23560;DHT22;11958;50.836;4.438;2023-04-24T08:12:56;9.90;92.80
23560;DHT22;11958;50.836;4.438;2023-04-24T08:15:21;9.90;91.60
23560;DHT22;11958;50.836;4.438;2023-04-24T08:17:47;9.90;91.10
23560;DHT22;11958;50.836;4.438;2023-04-24T08:20:13;9.80;91.70
23560;DHT22;11958;50.836;4.438;2023-04-24T08:22:42;9.90;90.30
23560;DHT22;11958;50.836;4.438;2023-04-24T08:25:32;9.80;90.40
23560;DHT22;11958;50.836;4.438;2023-04-24T08:28:02;9.90;91.00
23560;DHT22;11958;50.836;4.438;2023-04-24T08:30:28;10.20;89.40
23560;DHT22;11958;50.836;4.438;2023-04-24T08:32:54;10.20;87.00
23560;DHT22;11958;50.836;4.438;2023-04-24T08:35:20;10.30;87.10
23560;DHT22;11958;50.836;4.438;2023-04-24T08:37:45;10.30;87.90
23560;DHT22;11958;50.836;4.438;2023-04-24T08:40:14;10.50;88.50
23560;DHT22;11958;50.836;4.438;2023-04-24T08:42:42;10.70;88.20
23560;DHT22;11958;50.836;4.438;2023-04-24T08:45:10;10.60;85.50
23560;DHT22;11958;50.836;4.438;2023-04-24T08:47:40;10.80;85.90
23560;DHT22;11958;50.836;4.438;2023-04-24T08:50:07;10.70;85.90
23560;DHT22;11958;50.836;4.438;2023-04-24T08:52:34;10.50;83.60
23560;DHT22;11958;50.836;4.438;2023-04-24T08:55:00;10.50;85.30
23560;DHT22;11958;50.836;4.438;2023-04-24T08:57:27;10.90;85.50
23560;DHT22;11958;50.836;4.438;2023-04-24T08:59:53;11.00;86.20
23560;DHT22;11958;50.836;4.438;2023-04-24T09:02:21;10.90;81.10
23560;DHT22;11958;50.836;4.438;2023-04-24T09:04:47;11.20;83.20
23560;DHT22;11958;50.836;4.438;2023-04-24T09:07:16;11.30;79.80
23560;DHT22;11958;50.836;4.438;2023-04-24T09:09:42;11.20;78.70
23560;DHT22;11958;50.836;4.438;2023-04-24T09:12:08;11.30;79.60
23560;DHT22;11958;50.836;4.438;2023-04-24T09:14:35;11.10;80.40
23560;DHT22;11958;50.836;4.438;2023-04-24T09:17:03;11.30;81.00
23560;DHT22;11958;50.836;4.438;2023-04-24T09:19:29;11.50;79.30
23560;DHT22;11958;50.836;4.438;2023-04-24T09:21:55;11.60;76.20
23560;DHT22;11958;50.836;4.438;2023-04-24T09:24:21;11.80;77.30
23560;DHT22;11958;50.836;4.438;2023-04-24T09:26:59;11.70;74.70
23560;DHT22;11958;50.836;4.438;2023-04-24T09:29:27;12.00;75.20
23560;DHT22;11958;50.836;4.438;2023-04-24T09:31:53;11.90;77.20
23560;DHT22;11958;50.836;4.438;2023-04-24T09:34:23;11.90;75.30
23560;DHT22;11958;50.836;4.438;2023-04-24T09:36:49;11.60;76.00
23560;DHT22;11958;50.836;4.438;2023-04-24T09:39:16;11.50;77.60
23560;DHT22;11958;50.836;4.438;2023-04-24T09:41:50;11.40;78.10
23560;DHT22;11958;50.836;4.438;2023-04-24T09:44:24;11.30;78.80
23560;DHT22;11958;50.836;4.438;2023-04-24T09:46:59;11.30;75.30
23560;DHT22;11958;50.836;4.438;2023-04-24T09:49:30;11.50;75.30
23560;DHT22;11958;50.836;4.438;2023-04-24T09:52:05;11.60;76.90
23560;DHT22;11958;50.836;4.438;2023-04-24T09:54:31;11.80;74.60
23560;DHT22;11958;50.836;4.438;2023-04-24T09:56:57;12.10;72.70
23560;DHT22;11958;50.836;4.438;2023-04-24T09:59:29;12.10;73.90
23560;DHT22;11958;50.836;4.438;2023-04-24T10:01:55;12.00;74.40
23560;DHT22;11958;50.836;4.438;2023-04-24T10:04:24;11.80;69.40
23560;DHT22;11958;50.836;4.438;2023-04-24T10:06:57;11.80;70.20
23560;DHT22;11958;50.836;4.438;2023-04-24T10:09:24;11.80;71.20
23560;DHT22;11958;50.836;4.438;2023-04-24T10:11:52;12.10;71.80
23560;DHT22;11958;50.836;4.438;2023-04-24T10:14:25;12.20;72.20
23560;DHT22;11958;50.836;4.438;2023-04-24T10:16:54;12.20;66.40
23560;DHT22;11958;50.836;4.438;2023-04-24T10:19:25;11.70;68.50
23560;DHT22;11958;50.836;4.438;2023-04-24T10:21:52;12.00;72.00
23560;DHT22;11958;50.836;4.438;2023-04-24T10:24:18;12.60;69.00
23560;DHT22;11958;50.836;4.438;2023-04-24T10:26:47;12.30;71.20
23560;DHT22;11958;50.836;4.438;2023-04-24T10:29:16;12.40;69.70
23560;DHT22;11958;50.836;4.438;2023-04-24T10:31:45;12.30;66.60
23560;DHT22;11958;50.836;4.438;2023-04-24T10:34:11;11.90;71.10
23560;DHT22;11958;50.836;4.438;2023-04-24T10:36:43;11.90;71.20
23560;DHT22;11958;50.836;4.438;2023-04-24T10:39:13;11.90;70.50
23560;DHT22;11958;50.836;4.438;2023-04-24T10:41:40;11.80;73.30
23560;DHT22;11958;50.836;4.438;2023-04-24T10:44:14;11.90;72.00
23560;DHT22;11958;50.836;4.438;2023-04-24T10:51:10;12.30;71.00
23560;DHT22;11958;50.836;4.438;2023-04-24T10:53:42;12.70;63.60
23560;DHT22;11958;50.836;4.438;2023-04-24T10:56:08;13.00;62.30
23560;DHT22;11958;50.836;4.438;2023-04-24T10:58:38;12.90;64.30
23560;DHT22;11958;50.836;4.438;2023-04-24T11:01:05;13.20;62.50
23560;DHT22;11958;50.836;4.438;2023-04-24T11:03:33;13.20;63.50
23560;DHT22;11958;50.836;4.438;2023-04-24T11:06:08;12.80;61.90
23560;DHT22;11958;50.836;4.438;2023-04-24T11:08:44;12.50;64.10
23560;DHT22;11958;50.836;4.438;2023-04-24T11:11:15;12.50;65.20
23560;DHT22;11958;50.836;4.438;2023-04-24T11:16:31;12.00;65.30
23560;DHT22;11958;50.836;4.438;2023-04-24T11:22:02;12.50;67.40
23560;DHT22;11958;50.836;4.438;2023-04-24T11:27:15;12.20;65.50
23560;DHT22;11958;50.836;4.438;2023-04-24T11:30:00;12.10;65.40
23560;DHT22;11958;50.836;4.438;2023-04-24T11:38:00;12.90;62.40
23560;DHT22;11958;50.836;4.438;2023-04-24T11:40:28;13.10;64.60
23560;DHT22;11958;50.836;4.438;2023-04-24T11:42:54;13.20;63.30
23560;DHT22;11958;50.836;4.438;2023-04-24T11:45:29;13.10;58.60
23560;DHT22;11958;50.836;4.438;2023-04-24T11:47:56;12.90;59.90
23560;DHT22;11958;50.836;4.438;2023-04-24T11:50:24;12.80;62.30
23560;DHT22;11958;50.836;4.438;2023-04-24T11:52:53;12.90;59.20
23560;DHT22;11958;50.836;4.438;2023-04-24T11:57:46;13.30;60.20
23560;DHT22;11958;50.836;4.438;2023-04-24T12:00:38;13.30;61.00
23560;DHT22;11958;50.836;4.438;2023-04-24T12:03:09;13.10;63.90
23560;DHT22;11958;50.836;4.438;2023-04-24T12:05:35;13.40;62.10
23560;DHT22;11958;50.836;4.438;2023-04-24T12:12:07;14.10;59.40
23560;DHT22;11958;50.836;4.438;2023-04-24T12:14:55;14.20;56.80
23560;DHT22;11958;50.836;4.438;2023-04-24T12:17:31;13.90;58.00
23560;DHT22;11958;50.836;4.438;2023-04-24T12:20:02;13.90;56.80
23560;DHT22;11958;50.836;4.438;2023-04-24T12:23:03;14.80;56.00
23560;DHT22;11958;50.836;4.438;2023-04-24T12:25:30;15.30;55.20
23560;DHT22;11958;50.836;4.438;2023-04-24T12:28:24;16.50;51.80
23560;DHT22;11958;50.836;4.438;2023-04-24T12:31:00;17.80;47.70
23560;DHT22;11958;50.836;4.438;2023-04-24T12:33:26;18.70;45.00
23560;DHT22;11958;50.836;4.438;2023-04-24T12:35:52;18.10;46.20
23560;DHT22;11958;50.836;4.438;2023-04-24T12:38:26;18.70;45.80
23560;DHT22;11958;50.836;4.438;2023-04-24T12:41:09;18.60;41.60
23560;DHT22;11958;50.836;4.438;2023-04-24T12:43:35;17.80;43.00
23560;DHT22;11958;50.836;4.438;2023-04-24T12:46:01;16.40;45.40
23560;DHT22;11958;50.836;4.438;2023-04-24T12:48:29;16.40;46.60
23560;DHT22;11958;50.836;4.438;2023-04-24T12:50:56;17.30;45.90
23560;DHT22;11958;50.836;4.438;2023-04-24T12:53:22;17.90;43.00
23560;DHT22;11958;50.836;4.438;2023-04-24T12:55:48;18.10;43.00
23560;DHT22;11958;50.836;4.438;2023-04-24T12:58:21;17.30;43.90
23560;DHT22;11958;50.836;4.438;2023-04-24T13:00:47;15.50;46.20
23560;DHT22;11958;50.836;4.438;2023-04-24T13:03:16;14.50;50.00
23560;DHT22;11958;50.836;4.438;2023-04-24T13:05:51;15.00;50.70
23560;DHT22;11958;50.836;4.438;2023-04-24T13:08:17;16.20;46.20
23560;DHT22;11958;50.836;4.438;2023-04-24T13:10:43;16.90;46.10
23560;DHT22;11958;50.836;4.438;2023-04-24T13:13:09;17.90;47.80
23560;DHT22;11958;50.836;4.438;2023-04-24T13:15:38;19.20;39.00
23560;DHT22;11958;50.836;4.438;2023-04-24T13:18:04;20.20;40.80
23560;DHT22;11958;50.836;4.438;2023-04-24T13:20:29;20.50;38.50
23560;DHT22;11958;50.836;4.438;2023-04-24T13:22:55;19.80;40.50
23560;DHT22;11958;50.836;4.438;2023-04-24T13:25:21;20.70;37.20
23560;DHT22;11958;50.836;4.438;2023-04-24T13:27:48;21.10;35.70
23560;DHT22;11958;50.836;4.438;2023-04-24T13:30:14;20.40;36.50
23560;DHT22;11958;50.836;4.438;2023-04-24T13:32:40;20.80;36.40
23560;DHT22;11958;50.836;4.438;2023-04-24T13:35:06;18.50;38.00
23560;DHT22;11958;50.836;4.438;2023-04-24T13:37:32;16.90;43.30
23560;DHT22;11958;50.836;4.438;2023-04-24T13:39:57;16.10;48.10
23560;DHT22;11958;50.836;4.438;2023-04-24T13:42:23;15.70;46.00
23560;DHT22;11958;50.836;4.438;2023-04-24T13:44:49;15.90;46.70
23560;DHT22;11958;50.836;4.438;2023-04-24T13:47:16;16.90;45.40
23560;DHT22;11958;50.836;4.438;2023-04-24T13:49:42;18.80;38.90
23560;DHT22;11958;50.836;4.438;2023-04-24T13:52:07;18.00;40.90
23560;DHT22;11958;50.836;4.438;2023-04-24T13:54:33;16.50;43.50
23560;DHT22;11958;50.836;4.438;2023-04-24T13:56:58;15.70;44.40
23560;DHT22;11958;50.836;4.438;2023-04-24T13:59:27;15.50;47.80
23560;DHT22;11958;50.836;4.438;2023-04-24T14:01:53;15.10;48.60
23560;DHT22;11958;50.836;4.438;2023-04-24T14:04:18;14.70;49.30
23560;DHT22;11958;50.836;4.438;2023-04-24T14:06:44;14.50;48.50
23560;DHT22;11958;50.836;4.438;2023-04-24T14:09:10;14.60;50.40
23560;DHT22;11958;50.836;4.438;2023-04-24T14:11:35;15.20;48.20
23560;DHT22;11958;50.836;4.438;2023-04-24T14:14:06;14.70;47.40
23560;DHT22;11958;50.836;4.438;2023-04-24T14:16:35;14.30;49.40
23560;DHT22;11958;50.836;4.438;2023-04-24T14:19:00;14.40;52.00
23560;DHT22;11958;50.836;4.438;2023-04-24T14:21:26;14.40;48.30
23560;DHT22;11958;50.836;4.438;2023-04-24T14:23:52;14.20;47.50
23560;DHT22;11958;50.836;4.438;2023-04-24T14:26:17;14.00;50.30
23560;DHT22;11958;50.836;4.438;2023-04-24T14:28:43;13.90;48.00
23560;DHT22;11958;50.836;4.438;2023-04-24T14:31:09;13.90;48.10
23560;DHT22;11958;50.836;4.438;2023-04-24T14:33:34;14.00;48.60
23560;DHT22;11958;50.836;4.438;2023-04-24T14:36:03;13.90;47.80
23560;DHT22;11958;50.836;4.438;2023-04-24T14:38:30;13.80;47.30
23560;DHT22;11958;50.836;4.438;2023-04-24T14:40:59;13.60;50.00
23560;DHT22;11958;50.836;4.438;2023-04-24T14:43:35;13.70;51.10
23560;DHT22;11958;50.836;4.438;2023-04-24T14:46:02;13.60;48.90
23560;DHT22;11958;50.836;4.438;2023-04-24T14:48:27;13.50;51.40
23560;DHT22;11958;50.836;4.438;2023-04-24T14:50:53;13.30;51.60
23560;DHT22;11958;50.836;4.438;2023-04-24T14:53:19;13.50;52.50
23560;DHT22;11958;50.836;4.438;2023-04-24T14:55:44;13.40;53.00
23560;DHT22;11958;50.836;4.438;2023-04-24T14:58:10;13.20;51.80
23560;DHT22;11958;50.836;4.438;2023-04-24T15:00:36;13.10;52.30
23560;DHT22;11958;50.836;4.438;2023-04-24T15:03:02;13.20;52.50
23560;DHT22;11958;50.836;4.438;2023-04-24T15:05:27;13.20;52.50
23560;DHT22;11958;50.836;4.438;2023-04-24T15:07:53;13.40;51.60
23560;DHT22;11958;50.836;4.438;2023-04-24T15:10:19;13.50;51.80
23560;DHT22;11958;50.836;4.438;2023-04-24T15:12:49;13.40;51.10
23560;DHT22;11958;50.836;4.438;2023-04-24T15:15:15;13.60;50.80
23560;DHT22;11958;50.836;4.438;2023-04-24T15:17:40;13.70;50.60
23560;DHT22;11958;50.836;4.438;2023-04-24T15:20:14;13.70;50.30
23560;DHT22;11958;50.836;4.438;2023-04-24T15:34:39;13.50;50.90
23560;DHT22;11958;50.836;4.438;2023-04-24T15:37:13;13.30;50.30
23560;DHT22;11958;50.836;4.438;2023-04-24T15:39:49;13.40;51.00
23560;DHT22;11958;50.836;4.438;2023-04-24T15:42:16;13.50;49.50
23560;DHT22;11958;50.836;4.438;2023-04-24T15:44:41;13.30;50.20
23560;DHT22;11958;50.836;4.438;2023-04-24T15:50:54;13.20;50.90
23560;DHT22;11958;50.836;4.438;2023-04-24T15:53:22;13.10;51.00
23560;DHT22;11958;50.836;4.438;2023-04-24T15:55:49;13.10;51.30
23560;DHT22;11958;50.836;4.438;2023-04-24T15:58:16;13.10;51.70
23560;DHT22;11958;50.836;4.438;2023-04-24T16:00:41;12.90;52.70
23560;DHT22;11958;50.836;4.438;2023-04-24T16:03:07;13.00;52.90
23560;DHT22;11958;50.836;4.438;2023-04-24T16:16:32;13.10;52.20
23560;DHT22;11958;50.836;4.438;2023-04-24T16:19:46;13.00;51.50
23560;DHT22;11958;50.836;4.438;2023-04-24T16:33:20;13.20;52.90
23560;DHT22;11958;50.836;4.438;2023-04-24T16:39:19;13.00;51.40
23560;DHT22;11958;50.836;4.438;2023-04-24T17:11:55;13.00;51.00
23560;DHT22;11958;50.836;4.438;2023-04-24T18:20:08;11.40;56.80
23560;DHT22;11958;50.836;4.438;2023-04-24T18:57:58;10.70;63.80
23560;DHT22;11958;50.836;4.438;2023-04-24T19:00:44;10.40;64.80
23560;DHT22;11958;50.836;4.438;2023-04-24T19:03:18;10.50;64.70